Meteo Giornale » Osservazioni meteo Italia » Napoli-Capodichino

ore: 03:50 - Osservazioni Meteo Napoli-Capodichino
Lat. 40° 51' N Lon. 14° 18' E Alt. 88 metri s.l.m.

nuvoloso Europe/Rome

19 °C

Nuvoloso

Temp. 24 Ore

19 °C

26 °C

Nord

5.5 Km/h

Dew point 15 °C

Umidità 77 %

Visibilità  10 Km

Il sole sorge alle ore 05:37

Il sole tramonta alle ore 20:21

Data e Ora Cielo e Fenomeni T °C DP °C Um. % Pres. hPa Vis. km Vento km/h
Oggi h: 03:50 nuvoloso Nuvoloso 19 15 77 1013 10 N 5.5
Oggi h: 03:20 nuvoloso Nuvoloso 19 15 77 1013 10 N 5.5
Oggi h: 02:50 nuvoloso Nuvoloso 19 15 77 1013 10 N/NE 7.4
Oggi h: 02:20 nuvoloso Nuvoloso 20 15 72 1013 10 N 5.5
Oggi h: 01:50 nuvoloso Nuvoloso 21 15 68 1013 10 SO 11.1
Oggi h: 01:20 nuvoloso Nuvoloso 21 15 68 1013 10 SO 11.1
Oggi h: 00:50 poco_nuvoloso Poco Nuvoloso 21 15 68 1013 10 S/SO 7.4
Oggi h: 00:20 poco_nuvoloso Poco Nuvoloso 20 15 72 1013 10 N 3.7
Ieri h: 23:50 poco_nuvoloso Poco Nuvoloso 20 15 72 1013 10 N 0
Ieri h: 23:20 nuvoloso Nuvoloso 21 15 68 1013 10 N 0
Ieri h: 22:50 molto_nuvoloso Molto Nuvoloso 21 15 68 1013 10 N 1.8
Ieri h: 22:20 molto_nuvoloso Molto Nuvoloso 21 14 64 1013 10 N 3.7
Ieri h: 21:50 molto_nuvoloso Molto Nuvoloso 21 14 64 1012 10 N 5.5
Ieri h: 20:50 molto_nuvoloso Molto Nuvoloso 21 15 68 1012 10 N 7.4
Ieri h: 20:20 molto_nuvoloso Molto Nuvoloso 21 15 68 1012 10 N 9.3
Ieri h: 19:50 molto_nuvoloso Molto Nuvoloso 21 15 68 1012 10 N/NE 11.1
Ieri h: 19:20 molto_nuvoloso Molto Nuvoloso 22 14 60 1012 10 N/NE 11.1
Ieri h: 18:50 molto_nuvoloso Molto Nuvoloso 22 17 73 1012 10 N 3.7
Ieri h: 18:20 molto_nuvoloso Molto Nuvoloso 22 16 68 1012 10 S 9.3
Ieri h: 17:50 molto_nuvoloso Molto Nuvoloso 22 15 64 1012 10 S 11.1
Ieri h: 17:20 molto_nuvoloso Molto Nuvoloso 24 14 53 1012 10 S 14.8
Ieri h: 16:50 molto_nuvoloso Molto Nuvoloso 25 13 47 1012 10 SO 14.8
Ieri h: 16:20 molto_nuvoloso Molto Nuvoloso 24 11 43 1012 10 S/SO 13
Ieri h: 15:50 molto_nuvoloso Molto Nuvoloso 24 12 47 1012 10 S/SO 14.8
Ieri h: 15:20 molto_nuvoloso Molto Nuvoloso 26 13 44 1012 10 S 13
Ieri h: 14:50 molto_nuvoloso Molto Nuvoloso 25 12 44 1012 10 S 9.3
Ieri h: 14:20 molto_nuvoloso Molto Nuvoloso 25 13 47 1012 10 S/SO 11.1
Ieri h: 13:50 molto_nuvoloso Molto Nuvoloso 26 14 47 1012 10 S 7.4
Ieri h: 13:20 nuvoloso Nuvoloso 26 13 44 1012 10 N 5.5
Ieri h: 12:50 molto_nuvoloso Molto Nuvoloso 25 12 44 1012 10 N 3.7
Ieri h: 12:20 molto_nuvoloso Molto Nuvoloso 24 15 57 1013 10 N 3.7
Ieri h: 11:50 molto_nuvoloso Molto Nuvoloso 24 14 53 1013 10 N 3.7
Ieri h: 11:20 molto_nuvoloso Molto Nuvoloso 24 14 53 1013 10 N 3.7
Ieri h: 10:50 molto_nuvoloso Molto Nuvoloso 23 14 56 1012 10 N 5.5
Ieri h: 10:20 coperto_pioggia Pioggia Debole 21 15 68 1013 10 O 11.1
Ieri h: 09:50 molto_nuvoloso Molto Nuvoloso 23 12 49 1013 10 O 11.1
Ieri h: 09:20 molto_nuvoloso Molto Nuvoloso 23 13 53 1013 10 N 5.5
Ieri h: 08:50 nuvoloso Nuvoloso 23 12 49 1012 10 N 9.3
Ieri h: 08:20 nuvoloso Nuvoloso 23 12 49 1012 10 N/NE 7.4
Ieri h: 07:50 nuvoloso Nuvoloso 22 12 53 1012 10 N 5.5
Ieri h: 07:20 nuvoloso Nuvoloso 21 12 56 1012 10 N 5.5
Ieri h: 06:50 nuvoloso Nuvoloso 20 12 59 1012 10 NO 7.4
Ieri h: 06:20 nuvoloso Nuvoloso 20 12 59 1011 10 N 9.3
Ieri h: 05:50 sereno Sereno 19 13 68 1011 10 O/NO 7.4
Ieri h: 05:20 sereno Sereno 20 12 59 1011 10 N 5.5
Ieri h: 04:50 sereno Sereno 20 12 59 1011 10 NO 7.4